Time;durP1;ratioP1;P1;durP2;ratioP2;P2;SDS_P1;SDS_P2;PMS_P1;PMS_P2;Temp;Humidity;BMP_temperature;BMP_pressure;BME280_temperature;BME280_humidity;BME280_pressure;Samples;Min_cycle;Max_cycle;Signal;HPM_P1;HPM_P2
2022/11/23 00:01:22;;;;;;;4.75;4.05;;;1.50;99.90;;;;;;5002377;28;20078;-64
2022/11/23 00:03:51;;;;;;;5.85;4.60;;;1.60;99.90;;;;;;5004888;28;20475;-64
2022/11/23 00:06:20;;;;;;;4.90;3.85;;;1.60;99.90;;;;;;5004795;28;20349;-64
2022/11/23 00:08:47;;;;;;;5.05;3.60;;;1.50;99.90;;;;;;5006621;28;20073;-64
2022/11/23 00:11:15;;;;;;;6.13;4.32;;;1.50;99.90;;;;;;5005589;28;20145;-66
2022/11/23 00:13:43;;;;;;;5.70;4.72;;;1.50;99.90;;;;;;5000916;28;20046;-66
2022/11/23 00:16:19;;;;;;;8.95;4.35;;;1.50;99.90;;;;;;5004543;28;20136;-64
2022/11/23 00:18:47;;;;;;;6.13;4.22;;;1.50;99.90;;;;;;5006937;28;20318;-64
2022/11/23 00:21:16;;;;;;;7.28;4.45;;;1.50;99.90;;;;;;5001345;28;20060;-64
2022/11/23 00:23:44;;;;;;;6.00;5.20;;;1.50;99.90;;;;;;5004664;28;20064;-65
2022/11/23 00:26:12;;;;;;;9.20;5.20;;;1.50;99.90;;;;;;5003801;28;20048;-64
2022/11/23 00:28:40;;;;;;;5.60;4.32;;;1.50;99.90;;;;;;5001845;28;20076;-64
2022/11/23 00:31:10;;;;;;;8.63;5.30;;;1.50;99.90;;;;;;5003617;28;20133;-63
2022/11/23 00:33:37;;;;;;;6.10;4.75;;;1.50;99.90;;;;;;5003166;28;20077;-64
2022/11/23 00:36:12;;;;;;;5.68;4.22;;;1.50;99.90;;;;;;4990047;28;20144;-65
2022/11/23 00:38:41;;;;;;;6.30;5.28;;;1.50;99.90;;;;;;5007043;28;20178;-66
2022/11/23 00:41:11;;;;;;;6.07;4.22;;;1.50;99.90;;;;;;5002947;28;20042;-64
2022/11/23 00:43:38;;;;;;;10.65;5.25;;;1.50;99.90;;;;;;4986585;28;20136;-65
2022/11/23 00:46:05;;;;;;;5.90;4.70;;;1.50;99.90;;;;;;5001049;28;20093;-64
2022/11/23 00:48:32;;;;;;;6.88;4.75;;;1.50;99.90;;;;;;5012046;28;20038;-65
2022/11/23 00:51:01;;;;;;;4.75;3.92;;;1.50;99.90;;;;;;5014273;28;20140;-64
2022/11/23 00:53:28;;;;;;;6.05;4.32;;;1.50;99.90;;;;;;5013386;28;20052;-64
2022/11/23 00:55:56;;;;;;;6.75;4.88;;;1.50;99.90;;;;;;5009832;28;20056;-64
2022/11/23 00:58:23;;;;;;;6.53;4.95;;;1.50;99.90;;;;;;5013192;28;20105;-65
2022/11/23 01:01:04;;;;;;;8.50;5.15;;;1.50;99.90;;;;;;5007927;28;20050;-65
2022/11/23 01:03:34;;;;;;;7.50;5.05;;;1.50;99.90;;;;;;4991851;28;20076;-64
2022/11/23 01:06:06;;;;;;;6.43;4.80;;;1.50;99.90;;;;;;5014485;28;20482;-66
2022/11/23 01:08:33;;;;;;;7.45;4.25;;;1.50;99.90;;;;;;4987533;28;20153;-64
2022/11/23 01:11:06;;;;;;;8.48;5.38;;;1.40;99.90;;;;;;5014897;28;20751;-64
2022/11/23 01:13:35;;;;;;;7.30;4.80;;;1.40;99.90;;;;;;5005941;28;20056;-64
2022/11/23 01:16:06;;;;;;;4.57;4.07;;;1.40;99.90;;;;;;4986646;28;20056;-66
2022/11/23 01:18:33;;;;;;;7.10;4.18;;;1.40;99.90;;;;;;4987234;28;20315;-64
2022/11/23 01:21:00;;;;;;;10.38;4.30;;;1.40;99.90;;;;;;5008845;28;20490;-65
2022/11/23 01:23:30;;;;;;;5.25;4.18;;;1.40;99.90;;;;;;5007058;28;20080;-64
2022/11/23 01:26:02;;;;;;;6.32;3.63;;;1.40;99.90;;;;;;5010650;28;20045;-64
2022/11/23 01:28:29;;;;;;;5.38;3.30;;;1.30;99.90;;;;;;4994705;28;20049;-65
2022/11/23 01:31:06;;;;;;;4.72;4.00;;;1.30;99.90;;;;;;5010933;28;20148;-64
2022/11/23 01:33:34;;;;;;;4.20;3.28;;;1.30;99.90;;;;;;5009708;28;20054;-64
2022/11/23 01:36:17;;;;;;;5.18;3.63;;;1.30;99.90;;;;;;5008745;28;20049;-64
2022/11/23 01:38:45;;;;;;;6.65;3.88;;;1.30;99.90;;;;;;5009812;28;20148;-63
2022/11/23 01:41:16;;;;;;;3.70;3.40;;;1.30;99.90;;;;;;5003117;28;20572;-64
2022/11/23 01:43:43;;;;;;;5.35;4.00;;;1.30;99.90;;;;;;5003419;28;21074;-63
2022/11/23 01:46:10;;;;;;;3.55;3.25;;;1.30;99.90;;;;;;4989709;28;20069;-64
2022/11/23 01:48:54;;;;;;;6.07;4.55;;;1.30;99.90;;;;;;5006311;28;20115;-63
2022/11/23 01:51:40;;;;;;;5.63;3.97;;;1.30;99.90;;;;;;5007488;28;20049;-64
2022/11/23 01:54:16;;;;;;;6.00;5.40;;;1.30;99.90;;;;;;5003278;28;20053;-65
2022/11/23 01:56:53;;;;;;;6.22;3.55;;;1.30;99.90;;;;;;5006711;28;20508;-64
2022/11/23 01:59:22;;;;;;;5.78;4.22;;;1.30;99.90;;;;;;5003288;28;20491;-64
2022/11/23 02:01:49;;;;;;;5.72;4.03;;;1.30;99.90;;;;;;5001753;28;20490;-64
2022/11/23 02:04:23;;;;;;;5.50;3.78;;;1.30;99.90;;;;;;4997970;28;20133;-64
2022/11/23 02:06:51;;;;;;;4.82;4.15;;;1.30;99.90;;;;;;5005943;28;20050;-64
2022/11/23 02:09:20;;;;;;;4.82;3.53;;;1.30;99.90;;;;;;5009737;28;20054;-64
2022/11/23 02:11:47;;;;;;;4.13;3.38;;;1.30;99.90;;;;;;5008694;28;20053;-63
2022/11/23 02:14:14;;;;;;;4.10;3.53;;;1.30;99.90;;;;;;5010198;28;20127;-65
2022/11/23 02:16:49;;;;;;;4.10;3.63;;;1.30;99.90;;;;;;5005810;28;20376;-65
2022/11/23 02:19:47;;;;;;;9.65;4.65;;;1.30;99.90;;;;;;5006512;28;20168;-64
2022/11/23 02:22:24;;;;;;;4.65;3.40;;;1.30;99.90;;;;;;4982908;28;20220;-64
2022/11/23 02:24:54;;;;;;;4.03;3.25;;;1.30;99.90;;;;;;5006246;28;20337;-64
2022/11/23 02:27:24;;;;;;;3.65;2.92;;;1.30;99.90;;;;;;5001094;28;20054;-64
2022/11/23 02:29:53;;;;;;;3.97;3.28;;;1.30;99.90;;;;;;5001885;28;20131;-64
2022/11/23 02:32:23;;;;;;;4.75;3.47;;;1.30;99.90;;;;;;4985930;28;20435;-64
2022/11/23 02:34:54;;;;;;;3.78;2.95;;;1.30;99.90;;;;;;4999793;28;20097;-66
2022/11/23 02:37:21;;;;;;;4.68;4.03;;;1.30;99.90;;;;;;5000021;28;20406;-66
2022/11/23 02:39:53;;;;;;;4.28;3.00;;;1.20;99.90;;;;;;5003614;28;20116;-63
2022/11/23 02:42:20;;;;;;;5.03;3.78;;;1.30;99.90;;;;;;5006187;28;20108;-63
2022/11/23 02:44:59;;;;;;;4.40;3.28;;;1.20;99.90;;;;;;5003222;28;20058;-64
2022/11/23 02:47:26;;;;;;;4.45;3.65;;;1.20;99.90;;;;;;5000881;28;20562;-64
2022/11/23 02:49:53;;;;;;;4.63;3.67;;;1.20;99.90;;;;;;5004971;28;20073;-64
2022/11/23 02:52:20;;;;;;;5.25;3.65;;;1.10;99.90;;;;;;5004946;28;20895;-63
2022/11/23 02:54:47;;;;;;;5.20;3.67;;;1.10;99.90;;;;;;4986742;28;20045;-63
2022/11/23 02:57:15;;;;;;;5.60;3.67;;;1.10;99.90;;;;;;5007238;28;20145;-63
2022/11/23 02:59:44;;;;;;;4.07;3.05;;;1.10;99.90;;;;;;4987055;28;20652;-63
2022/11/23 03:02:11;;;;;;;5.50;3.35;;;1.10;99.90;;;;;;4999420;28;20143;-64
2022/11/23 03:04:39;;;;;;;3.70;3.28;;;1.10;99.90;;;;;;5007132;28;20095;-63
2022/11/23 03:07:06;;;;;;;3.42;2.70;;;1.10;99.90;;;;;;4999538;28;20065;-64
2022/11/23 03:09:34;;;;;;;5.65;3.70;;;1.20;99.90;;;;;;4999649;28;20137;-63
2022/11/23 03:12:01;;;;;;;6.63;3.95;;;1.20;99.90;;;;;;5000544;28;20515;-63
2022/11/23 03:14:28;;;;;;;4.50;3.53;;;1.20;99.90;;;;;;4997902;28;20045;-64
2022/11/23 03:16:59;;;;;;;3.60;2.65;;;1.20;99.90;;;;;;4998600;28;20053;-63
2022/11/23 03:19:29;;;;;;;4.22;3.83;;;1.20;99.90;;;;;;4998737;28;20073;-64
2022/11/23 03:21:57;;;;;;;6.53;4.35;;;1.20;99.90;;;;;;4998801;28;20065;-66
2022/11/23 03:24:24;;;;;;;6.05;3.45;;;1.20;99.90;;;;;;4998888;28;20132;-64
2022/11/23 03:26:53;;;;;;;4.90;4.43;;;1.20;99.90;;;;;;5002822;28;20063;-64
2022/11/23 03:29:21;;;;;;;3.95;3.20;;;1.20;99.90;;;;;;4997183;28;20056;-63
2022/11/23 03:31:48;;;;;;;5.10;3.53;;;1.20;99.90;;;;;;5001064;28;20126;-64
2022/11/23 03:34:17;;;;;;;4.72;4.15;;;1.20;99.90;;;;;;5003158;28;22009;-64
2022/11/23 03:36:44;;;;;;;4.60;3.45;;;1.20;99.90;;;;;;5002736;28;20172;-64
2022/11/23 03:39:12;;;;;;;5.50;3.90;;;1.20;99.90;;;;;;5000542;28;20111;-63
2022/11/23 03:42:00;;;;;;;5.38;4.28;;;1.20;99.90;;;;;;4984179;28;20057;-64
2022/11/23 03:44:31;;;;;;;5.55;3.90;;;1.20;99.90;;;;;;5005423;28;20053;-65
2022/11/23 03:46:58;;;;;;;4.82;3.72;;;1.10;99.90;;;;;;5005142;28;20075;-64
2022/11/23 03:49:26;;;;;;;5.40;3.90;;;1.10;99.90;;;;;;4986811;28;20062;-63
2022/11/23 03:51:53;;;;;;;6.45;3.88;;;1.10;99.90;;;;;;4990014;28;20055;-64
2022/11/23 03:54:20;;;;;;;5.30;3.95;;;1.10;99.90;;;;;;4985747;28;20072;-63
2022/11/23 03:56:47;;;;;;;4.57;3.30;;;1.10;99.90;;;;;;4980979;28;20073;-65
2022/11/23 03:59:15;;;;;;;6.85;3.10;;;1.10;99.90;;;;;;5002025;28;20046;-63
2022/11/23 04:01:42;;;;;;;4.28;3.08;;;1.10;99.90;;;;;;4999058;28;20054;-65
2022/11/23 04:04:17;;;;;;;3.47;3.15;;;1.10;99.90;;;;;;5000597;28;20119;-64
2022/11/23 04:06:57;;;;;;;5.80;3.80;;;1.10;99.90;;;;;;4988584;28;20056;-63
2022/11/23 04:09:28;;;;;;;3.67;3.08;;;1.10;99.90;;;;;;5000163;28;20076;-64
2022/11/23 04:12:02;;;;;;;5.78;3.80;;;1.20;99.90;;;;;;5005769;28;20054;-63
2022/11/23 04:14:29;;;;;;;7.40;3.70;;;1.20;99.90;;;;;;4990747;28;20056;-64
2022/11/23 04:16:57;;;;;;;5.18;3.83;;;1.20;99.90;;;;;;5001971;28;20080;-64
2022/11/23 04:19:24;;;;;;;7.30;2.67;;;1.20;99.90;;;;;;5012381;28;20095;-64
2022/11/23 04:21:51;;;;;;;4.32;3.47;;;1.20;99.90;;;;;;5003446;28;20069;-66
2022/11/23 04:24:19;;;;;;;4.10;3.42;;;1.20;99.90;;;;;;4992781;28;20080;-64
2022/11/23 04:26:46;;;;;;;5.50;3.50;;;1.20;99.90;;;;;;4989816;28;20116;-66
2022/11/23 04:29:13;;;;;;;4.55;3.88;;;1.20;99.90;;;;;;5006882;28;20133;-67
2022/11/23 04:31:46;;;;;;;3.53;3.22;;;1.20;99.90;;;;;;4987302;28;20462;-63
2022/11/23 04:34:16;;;;;;;3.67;3.20;;;1.20;99.90;;;;;;5003673;28;20054;-63
2022/11/23 04:36:43;;;;;;;4.13;3.78;;;1.20;99.90;;;;;;4989775;28;20132;-65
2022/11/23 04:39:12;;;;;;;4.95;4.00;;;1.20;99.90;;;;;;4999414;28;20187;-63
2022/11/23 04:41:52;;;;;;;6.80;3.55;;;1.30;99.90;;;;;;5004535;28;20171;-63
2022/11/23 04:44:20;;;;;;;5.22;4.20;;;1.30;99.90;;;;;;4999073;28;20129;-62
2022/11/23 04:46:51;;;;;;;5.53;4.13;;;1.30;99.90;;;;;;5005524;28;20061;-63
2022/11/23 04:49:19;;;;;;;4.95;4.05;;;1.30;99.90;;;;;;5000529;28;20050;-65
2022/11/23 04:51:46;;;;;;;4.55;3.95;;;1.30;99.90;;;;;;4997578;28;20052;-63
2022/11/23 04:54:15;;;;;;;6.13;3.97;;;1.30;99.90;;;;;;5008229;28;20038;-63
2022/11/23 04:56:48;;;;;;;8.55;5.10;;;1.30;99.90;;;;;;4992312;28;20069;-63
2022/11/23 04:59:16;;;;;;;5.15;4.22;;;1.30;99.90;;;;;;5002044;28;20057;-63
2022/11/23 05:01:44;;;;;;;4.55;3.60;;;1.30;99.90;;;;;;5000645;28;20116;-63
2022/11/23 05:04:46;;;;;;;5.93;4.38;;;1.30;99.90;;;;;;5002544;28;20050;-64
2022/11/23 05:07:15;;;;;;;5.50;4.30;;;1.30;99.90;;;;;;4987210;28;20045;-63
2022/11/23 05:09:47;;;;;;;6.47;4.15;;;1.30;99.90;;;;;;5000643;28;23297;-63
2022/11/23 05:12:16;;;;;;;5.60;4.43;;;1.30;99.90;;;;;;5002354;28;20053;-63
2022/11/23 05:14:43;;;;;;;5.40;4.43;;;1.30;99.90;;;;;;5005791;28;20129;-64
2022/11/23 05:17:14;;;;;;;5.32;4.20;;;1.30;99.90;;;;;;5002545;28;20046;-62
2022/11/23 05:19:41;;;;;;;6.57;4.35;;;1.30;99.90;;;;;;4988070;28;20054;-65
2022/11/23 05:22:08;;;;;;;5.60;4.85;;;1.30;99.90;;;;;;4984642;28;20050;-64
2022/11/23 05:24:38;;;;;;;9.30;4.90;;;1.30;99.90;;;;;;4997466;28;20049;-65
2022/11/23 05:27:13;;;;;;;6.15;5.18;;;1.30;99.90;;;;;;5002769;28;20100;-63
2022/11/23 05:29:40;;;;;;;7.47;5.40;;;1.30;99.90;;;;;;5006711;28;20143;-64
2022/11/23 05:32:07;;;;;;;7.55;5.30;;;1.30;99.90;;;;;;4996250;28;20104;-67
2022/11/23 05:34:34;;;;;;;6.22;5.30;;;1.30;99.90;;;;;;5008150;28;20126;-64
2022/11/23 05:37:03;;;;;;;5.90;5.30;;;1.30;99.90;;;;;;4986311;28;20431;-64
2022/11/23 05:39:30;;;;;;;7.20;5.57;;;1.30;99.90;;;;;;4999994;28;20081;-63
2022/11/23 05:41:59;;;;;;;8.93;5.97;;;1.30;99.90;;;;;;5003252;28;20121;-63
2022/11/23 05:44:34;;;;;;;6.00;5.38;;;1.30;99.90;;;;;;4998728;28;20065;-63
2022/11/23 05:47:02;;;;;;;8.27;6.00;;;1.30;99.90;;;;;;4997594;28;20661;-63
2022/11/23 05:49:31;;;;;;;23.17;11.15;;;1.30;99.90;;;;;;4998789;28;20128;-63
2022/11/23 05:52:00;;;;;;;59.47;23.45;;;1.30;99.90;;;;;;5004121;28;20392;-64
2022/11/23 05:54:29;;;;;;;44.25;22.48;;;1.30;99.90;;;;;;4988143;28;20129;-63
2022/11/23 05:57:06;;;;;;;24.80;13.73;;;1.30;99.90;;;;;;5002504;28;20064;-63
2022/11/23 05:59:36;;;;;;;15.05;7.65;;;1.30;99.90;;;;;;5001455;28;20054;-65
2022/11/23 06:02:03;;;;;;;9.45;6.10;;;1.30;99.90;;;;;;4989913;28;20104;-65
2022/11/23 06:04:33;;;;;;;8.30;5.75;;;1.30;99.90;;;;;;4984620;28;20046;-64
2022/11/23 06:07:00;;;;;;;7.03;6.28;;;1.30;99.90;;;;;;5006158;28;20060;-64
2022/11/23 06:09:36;;;;;;;10.25;7.07;;;1.30;99.90;;;;;;4996035;28;20061;-63
2022/11/23 06:12:07;;;;;;;7.32;6.57;;;1.20;99.90;;;;;;5002644;28;20053;-64
2022/11/23 06:14:34;;;;;;;7.63;6.05;;;1.20;99.90;;;;;;4999080;28;20050;-63
2022/11/23 06:17:01;;;;;;;6.88;6.05;;;1.20;99.90;;;;;;4996961;28;20073;-63
2022/11/23 06:19:48;;;;;;;6.20;5.50;;;1.20;99.90;;;;;;4993263;28;20069;-64
2022/11/23 06:22:16;;;;;;;7.82;6.43;;;1.20;99.90;;;;;;5002194;28;20046;-66
2022/11/23 06:25:03;;;;;;;6.93;5.57;;;1.20;99.90;;;;;;5001645;28;20045;-63
2022/11/23 06:28:00;;;;;;;7.82;5.93;;;1.20;99.90;;;;;;4991395;28;20054;-63
2022/11/23 06:30:34;;;;;;;6.18;5.57;;;1.30;99.90;;;;;;4997969;28;20156;-65
2022/11/23 06:33:05;;;;;;;9.35;7.65;;;1.20;99.90;;;;;;5000598;28;20072;-64
2022/11/23 06:35:39;;;;;;;7.85;6.20;;;1.20;99.90;;;;;;4997744;28;20054;-63
2022/11/23 06:38:06;;;;;;;8.40;6.68;;;1.30;99.90;;;;;;5005614;28;20136;-63
2022/11/23 06:40:33;;;;;;;8.43;5.70;;;1.20;99.90;;;;;;5003817;28;20050;-63
2022/11/23 06:43:01;;;;;;;9.23;6.97;;;1.20;99.90;;;;;;4990329;28;20049;-65
2022/11/23 06:45:37;;;;;;;8.57;7.63;;;1.20;99.90;;;;;;4984365;28;20113;-64
2022/11/23 06:48:08;;;;;;;10.10;7.10;;;1.30;99.90;;;;;;4997647;28;20077;-63
2022/11/23 06:50:40;;;;;;;9.27;7.68;;;1.30;99.90;;;;;;4987494;28;20149;-67
2022/11/23 06:53:11;;;;;;;9.55;7.93;;;1.30;99.90;;;;;;4983133;28;20148;-63
2022/11/23 06:55:51;;;;;;;11.15;8.27;;;1.30;99.90;;;;;;4996032;28;20060;-64
2022/11/23 06:58:19;;;;;;;9.38;8.18;;;1.30;99.90;;;;;;4984882;28;20042;-64
2022/11/23 07:00:46;;;;;;;12.60;8.95;;;1.30;99.90;;;;;;4984995;28;20050;-64
2022/11/23 07:03:23;;;;;;;10.35;7.75;;;1.30;99.90;;;;;;4992503;28;20125;-64
2022/11/23 07:06:07;;;;;;;10.85;7.45;;;1.20;99.90;;;;;;4983312;28;20830;-64
2022/11/23 07:08:38;;;;;;;9.13;6.68;;;1.30;99.90;;;;;;4996931;28;20049;-64
2022/11/23 07:11:19;;;;;;;11.32;7.60;;;1.30;99.90;;;;;;4998506;28;20432;-64
2022/11/23 07:13:46;;;;;;;10.18;8.23;;;1.30;99.90;;;;;;4995366;28;20381;-63
2022/11/23 07:16:13;;;;;;;13.27;8.68;;;1.30;99.90;;;;;;4983118;28;20702;-64
2022/11/23 07:18:41;;;;;;;10.02;7.28;;;1.30;99.90;;;;;;4983120;28;20046;-64
2022/11/23 07:21:08;;;;;;;11.60;8.35;;;1.30;99.90;;;;;;4983264;28;20807;-64
2022/11/23 07:23:39;;;;;;;12.80;7.70;;;1.30;99.90;;;;;;4995857;28;20151;-64
2022/11/23 07:26:08;;;;;;;13.45;9.23;;;1.30;99.90;;;;;;4997415;28;20588;-63
2022/11/23 07:28:35;;;;;;;9.13;6.80;;;1.30;99.90;;;;;;4996214;28;20054;-63
2022/11/23 07:31:02;;;;;;;8.70;7.22;;;1.30;99.90;;;;;;4984226;28;20064;-69
2022/11/23 07:33:29;;;;;;;10.40;7.22;;;1.30;99.90;;;;;;4987802;28;20046;-64
2022/11/23 07:35:59;;;;;;;10.40;7.53;;;1.30;99.90;;;;;;4985534;28;20173;-65
2022/11/23 07:38:26;;;;;;;13.13;7.20;;;1.30;99.90;;;;;;4994267;28;20085;-63
2022/11/23 07:40:53;;;;;;;15.20;8.02;;;1.30;99.90;;;;;;4998566;28;20078;-63
2022/11/23 07:43:38;;;;;;;9.85;6.50;;;1.30;99.90;;;;;;4997072;28;20140;-66
2022/11/23 07:46:06;;;;;;;9.57;7.28;;;1.30;99.90;;;;;;4990970;28;20500;-63
2022/11/23 07:48:33;;;;;;;10.55;7.72;;;1.30;99.90;;;;;;4987288;28;20068;-63
2022/11/23 07:51:02;;;;;;;10.75;7.28;;;1.30;99.90;;;;;;4988583;28;20046;-66
2022/11/23 07:53:29;;;;;;;8.98;6.80;;;1.30;99.90;;;;;;4981393;28;20551;-66
2022/11/23 07:55:59;;;;;;;10.52;7.28;;;1.30;99.90;;;;;;4982669;28;20192;-63
2022/11/23 07:58:26;;;;;;;11.30;7.60;;;1.40;99.90;;;;;;4984748;28;20224;-64
2022/11/23 08:00:53;;;;;;;8.63;6.85;;;1.40;99.90;;;;;;4988561;28;20477;-63
2022/11/23 08:03:21;;;;;;;8.82;7.32;;;1.40;99.90;;;;;;4986361;28;20165;-64
2022/11/23 08:05:56;;;;;;;8.90;7.10;;;1.40;99.90;;;;;;4984560;28;20046;-63
2022/11/23 08:08:23;;;;;;;11.07;8.20;;;1.50;99.90;;;;;;4984062;28;20171;-64
2022/11/23 08:10:50;;;;;;;12.18;8.68;;;1.40;99.90;;;;;;4977290;28;20081;-63
2022/11/23 08:13:20;;;;;;;9.47;7.47;;;1.50;99.90;;;;;;4987272;28;20447;-64
2022/11/23 08:15:49;;;;;;;10.05;7.28;;;1.50;99.90;;;;;;4981157;28;25567;-64
2022/11/23 08:18:22;;;;;;;10.85;6.70;;;1.50;99.90;;;;;;4986880;28;20060;-64
2022/11/23 08:20:49;;;;;;;10.25;7.35;;;1.50;99.90;;;;;;4984071;28;20495;-63
2022/11/23 08:23:16;;;;;;;11.23;6.88;;;1.50;99.90;;;;;;4977937;28;20449;-63
2022/11/23 08:25:43;;;;;;;10.00;7.55;;;1.50;99.90;;;;;;4980504;28;20082;-67
2022/11/23 08:28:10;;;;;;;11.43;7.65;;;1.50;99.90;;;;;;4982075;28;20076;-65
2022/11/23 08:30:37;;;;;;;8.40;7.03;;;1.50;99.90;;;;;;4983009;28;20138;-63
2022/11/23 08:33:06;;;;;;;10.18;8.35;;;1.60;99.90;;;;;;4986063;28;20058;-65
2022/11/23 08:35:35;;;;;;;9.27;7.10;;;1.50;99.90;;;;;;4984528;28;20154;-67
2022/11/23 08:38:06;;;;;;;10.15;8.00;;;1.50;99.90;;;;;;4993193;28;20115;-64
2022/11/23 08:40:34;;;;;;;9.65;7.32;;;1.50;99.90;;;;;;4980942;28;20177;-63
2022/11/23 08:43:02;;;;;;;10.32;7.80;;;1.50;99.90;;;;;;4981157;28;20046;-63
2022/11/23 08:45:29;;;;;;;9.23;7.65;;;1.50;99.90;;;;;;4994105;28;20188;-63
2022/11/23 08:48:01;;;;;;;9.77;8.07;;;1.60;99.90;;;;;;4999210;28;20057;-64
2022/11/23 08:50:29;;;;;;;11.48;8.38;;;1.50;99.90;;;;;;4998350;28;20120;-63
2022/11/23 08:52:57;;;;;;;9.55;7.00;;;1.60;99.90;;;;;;5004918;28;20133;-63
2022/11/23 08:55:26;;;;;;;11.55;8.32;;;1.60;99.90;;;;;;5000818;28;20045;-63
2022/11/23 08:57:57;;;;;;;10.18;8.25;;;1.60;99.90;;;;;;4999510;28;20118;-63
2022/11/23 09:00:26;;;;;;;12.80;7.95;;;1.70;99.90;;;;;;5004863;28;20096;-64
2022/11/23 09:02:53;;;;;;;9.35;6.85;;;1.70;99.90;;;;;;5004952;28;20841;-65
2022/11/23 09:05:20;;;;;;;9.52;8.10;;;1.70;99.90;;;;;;5007306;28;20330;-64
2022/11/23 09:07:47;;;;;;;9.88;7.22;;;1.70;99.90;;;;;;5006610;28;23401;-64
2022/11/23 09:10:14;;;;;;;9.93;7.63;;;1.70;99.90;;;;;;5007188;28;20062;-64
2022/11/23 09:12:45;;;;;;;9.95;6.53;;;1.70;99.90;;;;;;5004981;28;20161;-64
2022/11/23 09:15:13;;;;;;;9.93;7.07;;;1.70;99.90;;;;;;5004646;28;20073;-65
2022/11/23 09:17:40;;;;;;;9.10;6.68;;;1.70;99.90;;;;;;4999667;28;20193;-66
2022/11/23 09:20:08;;;;;;;8.60;6.97;;;1.70;99.90;;;;;;5012148;28;20061;-65
2022/11/23 09:22:35;;;;;;;9.05;7.57;;;1.70;99.90;;;;;;5009249;28;20133;-64
2022/11/23 09:25:03;;;;;;;10.05;7.53;;;1.70;99.90;;;;;;5006881;28;20135;-63
2022/11/23 09:27:30;;;;;;;8.65;6.95;;;1.70;99.90;;;;;;5006658;28;20463;-63
2022/11/23 09:29:57;;;;;;;9.73;7.68;;;1.70;99.90;;;;;;5007238;28;20172;-67
2022/11/23 09:32:24;;;;;;;9.13;7.45;;;1.70;99.90;;;;;;5010324;28;20120;-63
2022/11/23 09:34:51;;;;;;;8.65;5.97;;;1.70;99.90;;;;;;5009747;28;20383;-64
2022/11/23 09:37:18;;;;;;;11.50;8.77;;;1.70;99.90;;;;;;5002762;28;20356;-67
2022/11/23 09:39:44;;;;;;;10.77;7.60;;;1.70;99.90;;;;;;5007917;28;20162;-64
2022/11/23 09:42:40;;;;;;;7.60;6.38;;;1.70;99.90;;;;;;5008813;28;20050;-64
2022/11/23 09:45:10;;;;;;;8.35;7.22;;;1.80;99.90;;;;;;5005479;28;20140;-63
2022/11/23 09:47:48;;;;;;;10.00;7.07;;;1.80;99.90;;;;;;5002021;28;20056;-65
2022/11/23 09:50:49;;;;;;;7.50;6.53;;;1.80;99.90;;;;;;5006484;28;20145;-63
2022/11/23 09:53:25;;;;;;;7.53;6.32;;;1.80;99.90;;;;;;5005730;28;20411;-64
2022/11/23 09:55:55;;;;;;;7.45;6.38;;;1.90;99.90;;;;;;5009160;28;20046;-63
2022/11/23 09:58:27;;;;;;;8.43;6.60;;;1.90;99.90;;;;;;5007006;28;20079;-64
2022/11/23 10:01:11;;;;;;;7.20;5.95;;;2.00;99.90;;;;;;5005035;28;20067;-63
2022/11/23 10:03:41;;;;;;;7.22;5.95;;;2.00;99.90;;;;;;5000027;28;20058;-67
2022/11/23 10:06:19;;;;;;;8.23;5.60;;;2.00;99.90;;;;;;5008043;28;20049;-64
2022/11/23 10:09:10;;;;;;;6.93;5.13;;;2.00;99.90;;;;;;5004696;28;20053;-63
2022/11/23 10:12:10;;;;;;;6.97;4.78;;;2.00;99.90;;;;;;5002031;28;20050;-64
2022/11/23 10:14:56;;;;;;;7.83;5.43;;;2.10;99.90;;;;;;5003780;28;20136;-65
2022/11/23 10:17:54;;;;;;;5.05;4.55;;;2.10;99.90;;;;;;5004932;28;20652;-67
2022/11/23 10:20:36;;;;;;;6.53;4.97;;;2.10;99.90;;;;;;5004755;28;20080;-65
2022/11/23 10:23:12;;;;;;;5.43;4.93;;;2.10;99.90;;;;;;5006776;28;20253;-64
2022/11/23 10:25:45;;;;;;;6.28;4.95;;;2.10;99.90;;;;;;5005142;28;20984;-64
2022/11/23 10:28:15;;;;;;;7.20;5.30;;;2.10;99.90;;;;;;5007804;28;20127;-65
2022/11/23 10:31:04;;;;;;;6.13;5.53;;;2.10;99.90;;;;;;5003543;28;20077;-63
2022/11/23 10:33:44;;;;;;;5.60;5.00;;;2.10;99.90;;;;;;5002890;28;20073;-63
2022/11/23 10:36:12;;;;;;;7.07;5.05;;;2.10;99.90;;;;;;5007807;28;20049;-67
2022/11/23 10:38:40;;;;;;;7.20;5.07;;;2.10;99.90;;;;;;5003465;28;20048;-64
2022/11/23 10:41:07;;;;;;;5.95;5.00;;;2.20;99.90;;;;;;5006825;28;20140;-64
2022/11/23 10:43:42;;;;;;;5.97;5.38;;;2.20;99.90;;;;;;5003623;28;20050;-65
2022/11/23 10:46:22;;;;;;;5.82;5.10;;;2.20;99.90;;;;;;5007007;28;20133;-63
2022/11/23 10:48:51;;;;;;;5.95;4.70;;;2.20;99.90;;;;;;5002182;28;20448;-64
2022/11/23 10:51:31;;;;;;;5.32;4.50;;;2.20;99.90;;;;;;5002558;28;20141;-64
2022/11/23 10:54:18;;;;;;;6.35;5.53;;;2.30;99.90;;;;;;5004723;28;20679;-64
2022/11/23 10:56:47;;;;;;;4.75;4.25;;;2.30;99.90;;;;;;5004866;28;20054;-63
2022/11/23 10:59:29;;;;;;;6.10;5.35;;;2.30;99.90;;;;;;5006047;28;20050;-65
2022/11/23 11:02:16;;;;;;;6.30;4.40;;;2.30;99.90;;;;;;5006048;28;20504;-64
2022/11/23 11:04:44;;;;;;;6.20;4.75;;;2.40;99.90;;;;;;5006400;28;20455;-67
2022/11/23 11:07:27;;;;;;;5.47;4.55;;;2.40;99.90;;;;;;5001638;28;20476;-64
2022/11/23 11:09:57;;;;;;;5.18;4.55;;;2.40;99.90;;;;;;4985567;28;20144;-65
2022/11/23 11:12:26;;;;;;;5.93;5.13;;;2.40;99.90;;;;;;5009096;28;20056;-65
2022/11/23 11:15:12;;;;;;;5.80;4.82;;;2.40;99.90;;;;;;5004103;28;20137;-64
2022/11/23 11:17:40;;;;;;;5.68;4.72;;;2.40;99.90;;;;;;4999923;28;20531;-64
2022/11/23 11:20:32;;;;;;;5.60;4.93;;;2.40;99.90;;;;;;5007654;28;20448;-65
2022/11/23 11:23:02;;;;;;;6.05;4.93;;;2.40;99.90;;;;;;5002021;28;20057;-66
2022/11/23 11:25:34;;;;;;;7.65;4.75;;;2.30;99.90;;;;;;5001292;28;20046;-64
2022/11/23 11:28:34;;;;;;;6.38;5.10;;;2.40;99.90;;;;;;4999120;28;20077;-64
2022/11/23 11:31:13;;;;;;;6.20;5.28;;;2.30;99.90;;;;;;5004279;28;20054;-65
2022/11/23 11:33:55;;;;;;;8.43;6.22;;;2.40;99.90;;;;;;4994883;28;20082;-65
2022/11/23 11:36:27;;;;;;;5.35;4.18;;;2.40;99.90;;;;;;5003506;28;20203;-65
2022/11/23 11:38:55;;;;;;;7.55;5.13;;;2.40;99.90;;;;;;5004076;28;20096;-66
2022/11/23 11:41:44;;;;;;;6.72;4.95;;;2.40;99.90;;;;;;5002770;28;20516;-64
2022/11/23 11:44:24;;;;;;;4.85;4.32;;;2.30;99.90;;;;;;5005478;28;20060;-65
2022/11/23 11:47:12;;;;;;;6.80;4.78;;;2.30;99.90;;;;;;4998673;28;20050;-68
2022/11/23 11:49:44;;;;;;;6.07;4.78;;;2.30;99.90;;;;;;4997980;28;20519;-64
2022/11/23 11:52:20;;;;;;;6.95;5.57;;;2.30;99.90;;;;;;5003226;28;20399;-63
2022/11/23 11:55:21;;;;;;;7.40;6.55;;;2.30;99.90;;;;;;4980022;28;20136;-65
2022/11/23 11:57:53;;;;;;;5.70;4.63;;;2.30;99.90;;;;;;4999679;28;20535;-64
2022/11/23 12:00:20;;;;;;;7.25;5.07;;;2.30;99.90;;;;;;5002666;28;20566;-69
2022/11/23 12:02:59;;;;;;;7.10;4.75;;;2.30;99.90;;;;;;4998736;28;20046;-63
2022/11/23 12:05:35;;;;;;;4.63;4.18;;;2.30;99.90;;;;;;5006662;28;20194;-63
2022/11/23 12:08:20;;;;;;;7.20;4.55;;;2.30;99.90;;;;;;4999969;28;20046;-67
2022/11/23 12:10:54;;;;;;;5.53;4.32;;;2.20;99.90;;;;;;5006609;28;20627;-66
2022/11/23 12:13:24;;;;;;;5.85;4.72;;;2.20;99.90;;;;;;4997994;28;20587;-65
2022/11/23 12:16:14;;;;;;;8.30;5.05;;;2.20;99.90;;;;;;5003568;28;20058;-64
2022/11/23 12:19:02;;;;;;;6.50;4.40;;;2.20;99.90;;;;;;5000770;28;20141;-64
2022/11/23 12:22:09;;;;;;;5.22;4.25;;;2.20;99.90;;;;;;5003938;28;20058;-63
2022/11/23 12:24:48;;;;;;;4.35;3.90;;;2.20;99.90;;;;;;5005924;28;20424;-63
2022/11/23 12:27:50;;;;;;;4.93;4.35;;;2.20;99.90;;;;;;4997734;28;20060;-64
2022/11/23 12:30:27;;;;;;;5.32;4.00;;;2.20;99.90;;;;;;5002520;28;20058;-64
2022/11/23 12:32:57;;;;;;;5.82;4.18;;;2.20;99.90;;;;;;5004362;28;20665;-64
2022/11/23 12:35:24;;;;;;;5.28;4.25;;;2.20;99.90;;;;;;5001714;28;20046;-64
2022/11/23 12:38:12;;;;;;;5.65;4.10;;;2.20;99.90;;;;;;5007066;28;20041;-65
2022/11/23 12:41:15;;;;;;;5.03;4.32;;;2.20;99.90;;;;;;5000085;28;20448;-65
2022/11/23 12:43:57;;;;;;;5.00;4.28;;;2.10;99.90;;;;;;5006094;28;20141;-65
2022/11/23 12:46:38;;;;;;;6.10;4.55;;;2.10;99.90;;;;;;5007173;28;20476;-64
2022/11/23 12:49:34;;;;;;;5.15;4.10;;;2.10;99.90;;;;;;5010311;28;20058;-64
2022/11/23 12:52:14;;;;;;;4.80;3.72;;;2.10;99.90;;;;;;5006759;28;20053;-65
2022/11/23 12:54:46;;;;;;;4.63;3.78;;;2.10;99.90;;;;;;5008970;28;20054;-66
2022/11/23 12:57:29;;;;;;;8.13;4.55;;;2.10;99.90;;;;;;5008447;28;20050;-64
2022/11/23 13:00:11;;;;;;;6.20;4.65;;;2.10;99.90;;;;;;5001241;28;20073;-64
2022/11/23 13:02:50;;;;;;;4.97;4.40;;;2.00;99.90;;;;;;5007147;28;20057;-64
2022/11/23 13:05:31;;;;;;;6.18;5.60;;;2.00;99.90;;;;;;5005160;28;20217;-65
2022/11/23 13:08:19;;;;;;;5.68;5.07;;;2.00;99.90;;;;;;5002289;28;20054;-64
2022/11/23 13:11:15;;;;;;;4.95;4.45;;;2.00;99.90;;;;;;5010716;28;20127;-65
2022/11/23 13:14:00;;;;;;;6.13;5.53;;;2.00;99.90;;;;;;4985666;28;20054;-65
2022/11/23 13:17:03;;;;;;;4.93;4.18;;;2.00;99.90;;;;;;5004386;28;20418;-66
2022/11/23 13:19:58;;;;;;;4.75;4.18;;;2.00;99.90;;;;;;5003859;28;20090;-63
2022/11/23 13:22:26;;;;;;;6.00;4.68;;;2.00;99.90;;;;;;5005146;28;20395;-64
2022/11/23 13:25:01;;;;;;;5.97;5.07;;;2.00;99.90;;;;;;5008715;28;20443;-63